createdAt,value
2019-05-07T00:02:35.188Z,13.15
2019-05-07T00:05:30.573Z,13.50
2019-05-07T00:08:25.657Z,12.18
2019-05-07T00:11:23.038Z,12.33
2019-05-07T00:14:18.157Z,11.97
2019-05-07T00:17:14.679Z,12.58
2019-05-07T00:20:09.940Z,12.58
2019-05-07T00:23:04.564Z,12.55
2019-05-07T00:25:59.526Z,12.00
2019-05-07T00:28:56.540Z,12.55
2019-05-07T00:31:52.202Z,12.43
2019-05-07T00:34:50.733Z,12.50
2019-05-07T00:37:52.398Z,13.55
2019-05-07T00:41:08.465Z,12.98
2019-05-07T00:44:03.927Z,13.05
2019-05-07T00:47:02.094Z,13.00
2019-05-07T00:49:58.667Z,12.80
2019-05-07T00:52:53.296Z,12.95
2019-05-07T00:55:48.858Z,13.48
2019-05-07T00:58:43.463Z,13.98
2019-05-07T01:01:38.151Z,14.20
2019-05-07T01:04:33.209Z,15.50
2019-05-07T01:07:28.945Z,17.30
2019-05-07T01:10:24.841Z,21.90
2019-05-07T01:13:23.042Z,17.65
2019-05-07T01:16:17.671Z,18.17
2019-05-07T01:19:13.727Z,19.23
2019-05-07T01:22:12.621Z,20.20
2019-05-07T01:25:12.327Z,21.27
2019-05-07T01:28:07.887Z,20.57
2019-05-07T01:31:02.817Z,20.23
2019-05-07T01:34:04.696Z,22.45
2019-05-07T01:37:02.709Z,20.75
2019-05-07T01:39:57.143Z,21.37
2019-05-07T01:42:54.935Z,21.90
2019-05-07T01:45:52.893Z,21.42
2019-05-07T01:48:48.145Z,21.77
2019-05-07T01:51:43.461Z,21.93
2019-05-07T01:54:39.726Z,22.40
2019-05-07T01:57:37.255Z,22.02
2019-05-07T02:00:32.617Z,22.10
2019-05-07T02:03:45.834Z,21.10
2019-05-07T02:06:59.695Z,21.40
2019-05-07T02:10:22.622Z,21.30
2019-05-07T02:13:16.404Z,20.68
2019-05-07T02:16:12.444Z,21.10
2019-05-07T02:19:07.099Z,20.65
2019-05-07T02:22:02.808Z,21.10
2019-05-07T02:24:57.921Z,20.32
2019-05-07T02:27:52.779Z,20.90
2019-05-07T02:30:47.768Z,21.23
2019-05-07T02:33:43.340Z,21.82
2019-05-07T02:36:43.315Z,20.85
2019-05-07T02:39:44.510Z,19.80
2019-05-07T02:42:44.190Z,20.62
2019-05-07T02:45:54.536Z,20.80
2019-05-07T02:48:56.988Z,20.52
2019-05-07T02:52:04.049Z,20.02
2019-05-07T02:55:23.373Z,20.32
2019-05-07T02:58:18.842Z,19.40
2019-05-07T03:01:14.000Z,20.10
2019-05-07T03:04:12.955Z,19.57
2019-05-07T03:07:06.841Z,19.37
2019-05-07T03:10:03.489Z,19.85
2019-05-07T03:12:57.811Z,19.30
2019-05-07T03:15:54.045Z,20.20
2019-05-07T03:18:48.494Z,19.77
2019-05-07T03:21:58.321Z,19.00
2019-05-07T03:25:09.067Z,19.00
2019-05-07T03:28:04.374Z,18.65
2019-05-07T03:31:06.118Z,18.92
2019-05-07T03:34:15.603Z,20.00
2019-05-07T03:37:07.211Z,17.98
2019-05-07T03:40:03.849Z,19.12
2019-05-07T03:43:01.841Z,19.02
2019-05-07T03:46:13.751Z,19.30
2019-05-07T03:49:06.602Z,18.82
2019-05-07T03:52:04.381Z,18.60
2019-05-07T03:54:57.201Z,18.27
2019-05-07T03:57:52.729Z,22.40
2019-05-07T04:00:47.943Z,22.22
2019-05-07T04:03:44.760Z,21.82
2019-05-07T04:06:39.022Z,20.30
2019-05-07T04:09:34.054Z,21.20
2019-05-07T04:12:28.992Z,21.68
2019-05-07T04:15:24.785Z,20.68
2019-05-07T04:18:19.130Z,22.20
2019-05-07T04:21:14.128Z,19.12
2019-05-07T04:24:33.289Z,18.82
2019-05-07T04:27:35.801Z,19.05
2019-05-07T04:30:33.045Z,19.45
2019-05-07T04:33:34.311Z,18.67
2019-05-07T04:36:35.538Z,18.20
2019-05-07T04:39:37.970Z,20.17
2019-05-07T04:42:36.032Z,18.23
2019-05-07T04:45:33.785Z,19.57
2019-05-07T04:48:33.731Z,18.60
2019-05-07T04:51:48.012Z,18.20
2019-05-07T04:54:48.230Z,17.98
2019-05-07T04:57:45.743Z,18.32
2019-05-07T05:00:43.171Z,17.73
2019-05-07T05:03:39.457Z,17.92
2019-05-07T05:06:42.393Z,16.23
2019-05-07T05:09:42.585Z,18.40
2019-05-07T05:12:42.621Z,19.07
2019-05-07T05:15:39.023Z,17.32
2019-05-07T05:18:38.230Z,16.77
2019-05-07T05:21:44.311Z,17.07
2019-05-07T05:24:48.321Z,17.23
2019-05-07T05:27:46.219Z,16.65
2019-05-07T05:30:50.009Z,15.53
2019-05-07T05:33:45.065Z,16.85
2019-05-07T05:36:44.524Z,16.60
2019-05-07T05:39:42.695Z,16.12
2019-05-07T05:42:47.112Z,14.75
2019-05-07T05:45:58.618Z,13.48
2019-05-07T05:48:59.147Z,13.85
2019-05-07T05:52:15.443Z,14.33
2019-05-07T05:55:26.883Z,13.88
2019-05-07T05:58:37.193Z,13.65
2019-05-07T06:01:54.777Z,12.25
2019-05-07T06:04:59.458Z,11.30
2019-05-07T06:08:09.287Z,11.63
2019-05-07T06:11:29.453Z,11.22
2019-05-07T06:14:56.424Z,11.93
2019-05-07T06:18:21.011Z,9.75
2019-05-07T06:21:32.288Z,9.90
2019-05-07T06:24:48.723Z,9.88
2019-05-07T06:27:46.928Z,9.55
2019-05-07T06:30:45.207Z,9.48
2019-05-07T06:33:40.301Z,9.38
2019-05-07T06:36:37.696Z,9.95
2019-05-07T06:39:49.983Z,8.48
2019-05-07T06:43:06.623Z,9.50
2019-05-07T06:46:07.734Z,8.78
2019-05-07T06:49:05.810Z,9.33
2019-05-07T06:52:07.738Z,9.13
2019-05-07T06:55:03.408Z,9.18
2019-05-07T06:58:02.551Z,8.85
2019-05-07T07:01:12.108Z,8.60
2019-05-07T07:04:26.230Z,8.73
2019-05-07T07:07:33.948Z,8.63
2019-05-07T07:10:46.005Z,7.92
2019-05-07T07:13:42.689Z,8.23
2019-05-07T07:16:41.933Z,7.95
2019-05-07T07:19:37.142Z,9.18
2019-05-07T07:22:34.807Z,8.18
2019-05-07T07:25:32.574Z,8.33
2019-05-07T07:28:32.410Z,8.40
2019-05-07T07:31:46.617Z,7.50
2019-05-07T07:34:53.143Z,8.83
2019-05-07T07:37:49.012Z,8.15
2019-05-07T07:40:52.663Z,7.80
2019-05-07T07:43:46.464Z,8.18
2019-05-07T07:46:42.569Z,7.40
2019-05-07T07:49:38.468Z,7.75
2019-05-07T07:52:37.763Z,7.17
2019-05-07T07:55:48.181Z,7.42
2019-05-07T07:59:08.879Z,7.65
2019-05-07T08:02:33.660Z,7.65
2019-05-07T08:05:29.822Z,7.90
2019-05-07T08:08:26.190Z,7.50
2019-05-07T08:11:24.574Z,8.73
2019-05-07T08:14:22.007Z,7.65
2019-05-07T08:17:22.171Z,7.80
2019-05-07T08:20:22.220Z,7.33
2019-05-07T08:23:22.708Z,7.53
2019-05-07T08:26:17.956Z,7.45
2019-05-07T08:29:14.690Z,7.40
2019-05-07T08:32:42.582Z,8.05
2019-05-07T08:35:43.479Z,7.58
2019-05-07T08:38:57.762Z,8.00
2019-05-07T08:41:53.155Z,8.35
2019-05-07T08:45:04.185Z,7.50
2019-05-07T08:48:02.063Z,8.20
2019-05-07T08:51:02.485Z,8.28
2019-05-07T08:54:09.580Z,8.68
2019-05-07T08:57:06.458Z,8.00
2019-05-07T09:00:04.691Z,8.08
2019-05-07T09:03:19.321Z,8.25
2019-05-07T09:06:02.843Z,7.95
2019-05-07T09:08:58.376Z,9.03
2019-05-07T09:11:53.501Z,7.67
2019-05-07T09:14:52.736Z,7.65
2019-05-07T09:17:49.230Z,7.92
2019-05-07T09:20:52.728Z,7.83
2019-05-07T09:23:52.310Z,7.55
2019-05-07T09:26:57.438Z,7.08
2019-05-07T09:30:23.547Z,7.30
2019-05-07T09:33:42.631Z,7.47
2019-05-07T09:36:54.750Z,7.10
2019-05-07T09:39:52.996Z,7.62
2019-05-07T09:42:52.525Z,7.72
2019-05-07T09:45:52.213Z,7.65
2019-05-07T09:48:52.400Z,7.45
2019-05-07T09:51:49.267Z,7.17
2019-05-07T09:54:49.324Z,6.62
2019-05-07T09:57:47.446Z,7.35
2019-05-07T10:00:46.480Z,6.42
2019-05-07T10:03:47.428Z,7.83
2019-05-07T10:06:45.037Z,7.47
2019-05-07T10:09:42.691Z,7.53
2019-05-07T10:12:57.450Z,7.03
2019-05-07T10:15:52.962Z,6.80
2019-05-07T10:18:48.854Z,7.50
2019-05-07T10:21:43.905Z,7.05
2019-05-07T10:24:41.873Z,8.15
2019-05-07T10:27:41.754Z,6.80
2019-05-07T10:30:36.747Z,7.50
2019-05-07T10:33:33.616Z,7.58
2019-05-07T10:36:32.037Z,7.40
2019-05-07T10:39:29.763Z,7.08
2019-05-07T10:42:28.059Z,7.25
2019-05-07T10:45:48.579Z,8.05
2019-05-07T10:48:51.619Z,8.08
2019-05-07T10:51:47.109Z,7.53
2019-05-07T10:54:56.509Z,7.40
2019-05-07T10:57:46.618Z,7.30
2019-05-07T11:00:45.596Z,7.00
2019-05-07T11:04:21.511Z,7.15
2019-05-07T11:07:23.903Z,7.28
2019-05-07T11:10:22.755Z,7.20
2019-05-07T11:13:21.761Z,8.03
2019-05-07T11:16:19.447Z,8.05
2019-05-07T11:19:18.761Z,7.30
2019-05-07T11:22:15.250Z,7.75
2019-05-07T11:25:12.130Z,7.75
2019-05-07T11:28:12.361Z,7.65
2019-05-07T11:31:12.385Z,6.97
2019-05-07T11:34:07.205Z,7.10
2019-05-07T11:37:02.724Z,8.00
2019-05-07T11:43:28.588Z,8.15
2019-05-07T11:46:41.586Z,7.42
2019-05-07T11:49:54.587Z,8.25
2019-05-07T11:53:00.753Z,8.28
2019-05-07T11:55:56.878Z,7.95
2019-05-07T11:58:54.883Z,6.85
2019-05-07T12:02:03.969Z,7.53
2019-05-07T12:05:01.832Z,8.35
2019-05-07T12:07:56.760Z,8.28
2019-05-07T12:10:52.665Z,7.83
2019-05-07T12:13:49.012Z,9.50
2019-05-07T12:16:46.436Z,8.85
2019-05-07T12:19:43.703Z,8.10
2019-05-07T12:22:52.154Z,8.68
2019-05-07T12:25:52.706Z,8.70
2019-05-07T12:28:49.640Z,9.08
2019-05-07T12:32:11.489Z,9.48
2019-05-07T12:35:16.375Z,8.85
2019-05-07T12:38:12.784Z,8.98
2019-05-07T12:41:25.645Z,8.90
2019-05-07T12:44:22.341Z,9.95
2019-05-07T12:47:22.345Z,9.93
2019-05-07T12:50:17.714Z,9.33
2019-05-07T12:53:22.401Z,10.05
2019-05-07T12:56:18.589Z,9.98
2019-05-07T12:59:15.381Z,10.70
2019-05-07T13:02:38.084Z,10.75
2019-05-07T13:05:24.641Z,11.08
2019-05-07T13:08:22.825Z,11.10
2019-05-07T13:11:22.190Z,11.38
2019-05-07T13:14:17.711Z,11.68
2019-05-07T13:17:16.448Z,12.45
2019-05-07T13:20:13.246Z,12.85
2019-05-07T13:23:09.067Z,13.38
2019-05-07T13:26:05.717Z,13.25
2019-05-07T13:29:02.599Z,13.25
2019-05-07T13:31:59.928Z,13.25
2019-05-07T13:34:57.852Z,13.70
2019-05-07T13:38:14.653Z,12.70
2019-05-07T13:41:31.309Z,14.38
2019-05-07T13:44:37.785Z,14.50
2019-05-07T13:47:46.052Z,13.88
2019-05-07T13:50:43.725Z,15.30
2019-05-07T13:53:42.634Z,14.30
2019-05-07T13:56:41.627Z,14.95
2019-05-07T13:59:39.245Z,14.87
2019-05-07T14:02:36.824Z,14.23
2019-05-07T14:05:33.084Z,14.63
2019-05-07T14:08:32.051Z,12.95
2019-05-07T14:11:29.894Z,13.93
2019-05-07T14:14:26.708Z,13.35
2019-05-07T14:17:22.957Z,14.78
2019-05-07T14:20:22.201Z,13.58
2019-05-07T14:23:21.424Z,13.65
2019-05-07T14:26:18.482Z,13.40
2019-05-07T14:29:14.141Z,13.72
2019-05-07T14:32:22.235Z,14.10
2019-05-07T14:35:33.861Z,14.10
2019-05-07T14:38:52.947Z,14.18
2019-05-07T14:41:52.055Z,14.38
2019-05-07T14:44:52.780Z,14.00
2019-05-07T14:47:47.704Z,13.90
2019-05-07T14:50:44.914Z,14.63
2019-05-07T14:53:40.941Z,14.07
2019-05-07T14:56:39.145Z,14.18
2019-05-07T14:59:36.682Z,13.58
2019-05-07T15:02:34.024Z,14.85
2019-05-07T15:05:32.607Z,14.07
2019-05-07T15:08:29.048Z,12.88
2019-05-07T15:11:25.796Z,13.32
2019-05-07T15:14:22.237Z,13.93
2019-05-07T15:17:27.210Z,14.10
2019-05-07T15:20:23.722Z,14.03
2019-05-07T15:23:32.830Z,14.18
2019-05-07T15:26:28.215Z,14.45
2019-05-07T15:29:24.416Z,14.87
2019-05-07T15:32:21.690Z,14.45
2019-05-07T15:35:16.354Z,14.18
2019-05-07T15:38:11.821Z,14.73
2019-05-07T15:41:06.622Z,16.23
2019-05-07T15:44:02.702Z,16.40
2019-05-07T15:46:58.563Z,16.23
2019-05-07T15:49:54.240Z,17.20
2019-05-07T15:53:02.707Z,16.35
2019-05-07T15:55:59.048Z,15.10
2019-05-07T15:58:53.835Z,16.42
2019-05-07T16:01:49.261Z,15.65
2019-05-07T16:04:43.785Z,15.48
2019-05-07T16:07:41.922Z,15.50
2019-05-07T16:10:39.280Z,16.82
2019-05-07T16:13:37.656Z,15.53
2019-05-07T16:16:33.975Z,16.25
2019-05-07T16:19:32.143Z,16.65
2019-05-07T16:22:33.102Z,16.32
2019-05-07T16:25:28.204Z,17.15
2019-05-07T16:28:22.888Z,16.82
2019-05-07T16:31:21.977Z,15.80
2019-05-07T16:34:18.480Z,16.35
2019-05-07T16:37:13.807Z,17.02
2019-05-07T16:40:12.488Z,17.73
2019-05-07T16:43:06.243Z,16.57
2019-05-07T16:46:02.480Z,16.60
2019-05-07T16:48:58.163Z,16.75
2019-05-07T16:51:54.408Z,15.70
2019-05-07T16:54:52.079Z,15.80
2019-05-07T16:58:06.215Z,15.88
2019-05-07T17:01:04.413Z,15.45
2019-05-07T17:04:02.599Z,15.78
2019-05-07T17:07:02.478Z,14.83
2019-05-07T17:09:58.934Z,15.08
2019-05-07T17:12:54.795Z,14.95
2019-05-07T17:16:03.515Z,15.38
2019-05-07T17:18:58.623Z,15.13
2019-05-07T17:21:55.232Z,14.90
2019-05-07T17:24:52.042Z,15.23
2019-05-07T17:27:48.544Z,14.28
2019-05-07T17:30:43.001Z,14.55
2019-05-07T17:33:39.150Z,14.33
2019-05-07T17:36:35.912Z,13.35
2019-05-07T17:39:32.310Z,13.85
2019-05-07T17:42:32.707Z,13.95
2019-05-07T17:45:32.227Z,13.20
2019-05-07T17:48:29.779Z,14.10
2019-05-07T17:51:45.375Z,13.88
2019-05-07T17:54:43.690Z,13.40
2019-05-07T17:57:41.772Z,13.78
2019-05-07T18:00:42.155Z,13.93
2019-05-07T18:03:42.618Z,13.65
2019-05-07T18:06:39.777Z,14.45
2019-05-07T18:09:37.659Z,13.80
2019-05-07T18:12:37.264Z,14.40
2019-05-07T18:15:36.089Z,13.80
2019-05-07T18:18:33.526Z,13.43
2019-05-07T18:21:28.616Z,13.32
2019-05-07T18:24:23.605Z,13.30
2019-05-07T18:27:24.498Z,14.28
2019-05-07T18:30:22.061Z,13.53
2019-05-07T18:33:33.677Z,14.28
2019-05-07T18:36:28.729Z,13.60
2019-05-07T18:39:25.156Z,14.73
2019-05-07T18:42:22.174Z,13.22
2019-05-07T18:45:21.649Z,14.00
2019-05-07T18:48:17.584Z,14.47
2019-05-07T18:51:15.063Z,13.43
2019-05-07T18:54:26.298Z,13.70
2019-05-07T18:57:10.954Z,13.48
2019-05-07T19:00:09.821Z,13.83
2019-05-07T19:03:07.458Z,13.45
2019-05-07T19:06:03.653Z,12.93
2019-05-07T19:08:59.443Z,13.32
2019-05-07T19:11:54.503Z,13.75
2019-05-07T19:14:51.711Z,13.22
2019-05-07T19:17:49.411Z,12.90
2019-05-07T19:20:44.984Z,12.98
2019-05-07T19:23:39.434Z,12.63
2019-05-07T19:26:35.078Z,13.10
2019-05-07T19:29:33.843Z,12.85
2019-05-07T19:32:28.891Z,12.73
2019-05-07T19:35:24.160Z,12.35
2019-05-07T19:38:20.281Z,13.38
2019-05-07T19:41:15.965Z,13.00
2019-05-07T19:44:13.692Z,12.98
2019-05-07T19:47:12.506Z,13.43
2019-05-07T19:50:07.174Z,12.18
2019-05-07T19:53:02.972Z,12.50
2019-05-07T19:56:16.148Z,13.22
2019-05-07T19:59:12.489Z,13.75
2019-05-07T20:02:09.701Z,13.05
2019-05-07T20:05:04.813Z,13.30
2019-05-07T20:08:02.041Z,13.20
2019-05-07T20:11:02.705Z,13.38
2019-05-07T20:13:58.008Z,12.95
2019-05-07T20:16:53.335Z,13.18
2019-05-07T20:19:47.918Z,12.28
2019-05-07T20:22:42.774Z,12.93
2019-05-07T20:25:37.203Z,12.70
2019-05-07T20:28:32.599Z,13.32
2019-05-07T20:31:28.561Z,12.73
2019-05-07T20:34:23.336Z,12.60
2019-05-07T20:37:18.900Z,12.75
2019-05-07T20:40:14.819Z,12.60
2019-05-07T20:43:09.509Z,11.73
2019-05-07T20:46:03.968Z,11.80
2019-05-07T20:48:58.592Z,12.33
2019-05-07T20:51:54.703Z,12.03
2019-05-07T20:55:27.961Z,12.28
2019-05-07T20:58:12.985Z,11.55
2019-05-07T21:01:09.297Z,11.48
2019-05-07T21:04:06.104Z,11.78
2019-05-07T21:07:02.114Z,12.10
2019-05-07T21:09:56.770Z,11.75
2019-05-07T21:12:53.986Z,11.65
2019-05-07T21:15:52.503Z,13.08
2019-05-07T21:18:48.393Z,14.47
2019-05-07T21:21:43.567Z,15.30
2019-05-07T21:24:42.239Z,16.42
2019-05-07T21:27:37.671Z,17.98
2019-05-07T21:30:32.791Z,18.77
2019-05-07T21:33:28.971Z,19.10
2019-05-07T21:36:26.278Z,19.55
2019-05-07T21:39:22.363Z,18.87
2019-05-07T21:42:16.285Z,19.87
2019-05-07T21:45:11.454Z,21.23
2019-05-07T21:48:06.059Z,20.40
2019-05-07T21:51:02.477Z,21.42
2019-05-07T21:54:12.177Z,20.90
2019-05-07T21:57:27.769Z,20.62
2019-05-07T22:00:27.983Z,21.70
2019-05-07T22:03:24.695Z,23.35
2019-05-07T22:06:22.718Z,23.55
2019-05-07T22:09:22.176Z,23.30
2019-05-07T22:12:19.126Z,22.62
2019-05-07T22:15:15.733Z,22.62
2019-05-07T22:18:12.058Z,23.45
2019-05-07T22:21:06.771Z,23.12
2019-05-07T22:24:02.820Z,23.20
2019-05-07T22:26:58.002Z,22.90
2019-05-07T22:29:52.891Z,22.32
2019-05-07T22:32:54.468Z,23.12
2019-05-07T22:35:49.363Z,24.52
2019-05-07T22:39:01.985Z,24.35
2019-05-07T22:41:58.401Z,24.27
2019-05-07T22:44:53.432Z,24.05
2019-05-07T22:47:48.553Z,25.45
2019-05-07T22:50:44.098Z,24.30
2019-05-07T22:53:39.138Z,24.35
2019-05-07T22:56:52.515Z,23.40
2019-05-07T22:59:46.780Z,23.65
2019-05-07T23:02:42.779Z,25.43
2019-05-07T23:05:37.710Z,26.15
2019-05-07T23:08:32.881Z,25.00
2019-05-07T23:11:27.349Z,25.20
2019-05-07T23:14:23.474Z,24.70
2019-05-07T23:17:18.899Z,24.70
2019-05-07T23:20:13.269Z,25.32
2019-05-07T23:23:07.841Z,25.70
2019-05-07T23:26:02.942Z,25.43
2019-05-07T23:28:57.621Z,26.02
2019-05-07T23:31:55.294Z,25.15
2019-05-07T23:34:48.935Z,24.70
2019-05-07T23:37:44.257Z,24.80
2019-05-07T23:40:48.814Z,24.18
2019-05-07T23:43:43.559Z,25.92
2019-05-07T23:46:38.020Z,25.40
2019-05-07T23:49:32.489Z,25.75
2019-05-07T23:52:27.724Z,25.02
2019-05-07T23:55:22.822Z,24.52
2019-05-07T23:58:18.161Z,24.75
